createdAt,value
2018-10-11T00:00:13.377Z,78158.13
2018-10-11T00:02:42.638Z,78157.13
2018-10-11T00:05:11.857Z,78151.13
2018-10-11T00:07:42.245Z,78166.14
2018-10-11T00:10:12.466Z,78166.14
2018-10-11T00:12:41.961Z,78161.14
2018-10-11T00:15:11.637Z,78162.14
2018-10-11T00:17:41.966Z,78178.16
2018-10-11T00:20:12.639Z,78178.16
2018-10-11T00:22:41.888Z,78186.17
2018-10-11T00:25:11.356Z,78190.17
2018-10-11T00:27:41.529Z,78172.16
2018-10-11T00:30:10.782Z,78173.16
2018-10-11T00:32:41.235Z,78153.13
2018-10-11T00:35:10.258Z,78169.15
2018-10-11T00:37:39.608Z,78176.16
2018-10-11T00:40:11.210Z,78177.16
2018-10-11T00:42:40.189Z,78174.16
2018-10-11T00:45:10.167Z,78192.17
2018-10-11T00:47:40.357Z,78193.17
2018-10-11T00:50:09.227Z,78200.19
2018-10-11T00:52:37.761Z,78202.19
2018-10-11T00:55:06.097Z,78207.20
2018-10-11T00:57:35.317Z,78199.19
2018-10-11T01:00:04.822Z,78206.19
2018-10-11T01:02:34.053Z,78209.20
2018-10-11T01:05:02.428Z,78220.20
2018-10-11T01:07:31.749Z,78212.20
2018-10-11T01:10:01.378Z,78222.21
2018-10-11T01:12:30.709Z,78226.22
2018-10-11T01:14:59.215Z,78227.22
2018-10-11T01:17:27.830Z,78212.20
2018-10-11T01:19:56.189Z,78222.21
2018-10-11T01:22:24.514Z,78221.21
2018-10-11T01:24:52.865Z,78220.20
2018-10-11T01:27:21.205Z,78217.20
2018-10-11T01:29:49.683Z,78231.22
2018-10-11T01:32:17.916Z,78236.23
2018-10-11T01:34:46.269Z,78243.23
2018-10-11T01:37:14.613Z,78244.23
2018-10-11T01:42:12.384Z,78252.25
2018-10-11T01:44:43.017Z,78270.27
2018-10-11T01:47:12.617Z,78275.28
2018-10-11T01:49:42.041Z,78278.28
2018-10-11T01:52:11.294Z,78282.28
2018-10-11T01:54:41.549Z,78270.27
2018-10-11T01:57:10.563Z,78276.28
2018-10-11T01:59:40.201Z,78280.28
2018-10-11T02:02:10.249Z,78279.28
2018-10-11T02:04:40.321Z,78271.27
2018-10-11T02:07:09.221Z,78276.28
2018-10-11T02:09:38.284Z,78264.27
2018-10-11T02:12:07.773Z,78270.27
2018-10-11T02:14:37.127Z,78272.27
2018-10-11T02:17:06.553Z,78266.27
2018-10-11T02:19:34.897Z,78280.28
2018-10-11T02:22:04.115Z,78285.29
2018-10-11T02:24:33.476Z,78288.30
2018-10-11T02:27:02.710Z,78285.29
2018-10-11T02:29:32.614Z,78278.28
2018-10-11T02:32:01.994Z,78286.29
2018-10-11T02:34:31.365Z,78280.28
2018-10-11T02:37:00.606Z,78260.26
2018-10-11T02:39:29.825Z,78262.27
2018-10-11T02:41:59.105Z,78243.23
2018-10-11T02:44:28.362Z,78232.22
2018-10-11T02:46:57.632Z,78229.22
2018-10-11T02:49:26.973Z,78220.20
2018-10-11T02:51:56.957Z,78217.20
2018-10-11T02:54:26.436Z,78230.22
2018-10-11T02:57:02.317Z,78227.22
2018-10-11T02:59:35.445Z,78236.23
2018-10-11T03:02:19.726Z,78217.20
2018-10-11T03:04:48.776Z,78223.21
2018-10-11T03:07:17.753Z,78220.20
2018-10-11T03:09:46.178Z,78210.20
2018-10-11T03:12:14.514Z,78210.20
2018-10-11T03:14:43.729Z,78218.20
2018-10-11T03:17:12.562Z,78222.21
2018-10-11T03:19:42.674Z,78234.23
2018-10-11T03:22:12.526Z,78230.22
2018-10-11T03:24:41.976Z,78238.23
2018-10-11T03:27:11.484Z,78238.23
2018-10-11T03:29:40.274Z,78233.22
2018-10-11T03:32:09.225Z,78240.23
2018-10-11T03:34:37.594Z,78235.23
2018-10-11T03:37:05.958Z,78247.24
2018-10-11T03:39:34.297Z,78238.23
2018-10-11T03:42:02.623Z,78244.23
2018-10-11T03:44:30.956Z,78234.23
2018-10-11T03:46:59.289Z,78229.22
2018-10-11T03:49:27.693Z,78246.23
2018-10-11T03:51:56.097Z,78253.25
2018-10-11T03:54:24.506Z,78260.26
2018-10-11T03:56:53.123Z,78242.23
2018-10-11T03:59:21.458Z,78256.25
2018-10-11T04:01:49.844Z,78256.25
2018-10-11T04:04:18.179Z,78260.26
2018-10-11T04:06:46.505Z,78252.25
2018-10-11T04:09:14.852Z,78235.23
2018-10-11T04:11:43.217Z,78239.23
2018-10-11T04:14:12.689Z,78244.23
2018-10-11T04:16:42.474Z,78250.25
2018-10-11T04:19:12.092Z,78243.23
2018-10-11T04:21:41.761Z,78246.23
2018-10-11T04:24:11.319Z,78272.27
2018-10-11T04:26:39.773Z,78272.27
2018-10-11T04:29:08.121Z,78260.26
2018-10-11T04:31:36.461Z,78264.27
2018-10-11T04:34:04.793Z,78268.27
2018-10-11T04:36:33.122Z,78266.27
2018-10-11T04:39:01.564Z,78260.26
2018-10-11T04:41:29.908Z,78258.25
2018-10-11T04:43:58.303Z,78252.25
2018-10-11T04:46:26.639Z,78249.24
2018-10-11T04:48:54.956Z,78243.23
2018-10-11T04:51:23.281Z,78247.24
2018-10-11T04:53:57.737Z,78238.23
2018-10-11T04:56:27.713Z,78230.22
2018-10-11T04:58:56.399Z,78220.20
2018-10-11T05:01:24.845Z,78218.20
2018-10-11T05:03:53.181Z,78221.21
2018-10-11T05:06:21.560Z,78204.19
2018-10-11T05:08:49.944Z,78201.19
2018-10-11T05:11:18.589Z,78200.19
2018-10-11T05:13:48.693Z,78196.18
2018-10-11T05:16:17.540Z,78204.19
2018-10-11T05:18:52.777Z,78205.19
2018-10-11T05:21:21.174Z,78191.17
2018-10-11T05:23:49.529Z,78180.16
2018-10-11T05:26:18.004Z,78168.15
2018-10-11T05:28:46.271Z,78168.15
2018-10-11T05:31:14.623Z,78173.16
2018-10-11T05:33:43.857Z,78168.15
2018-10-11T05:36:14.009Z,78172.16
2018-10-11T05:38:42.732Z,78176.16
2018-10-11T05:41:12.886Z,78175.16
2018-10-11T05:43:42.253Z,78166.14
2018-10-11T05:46:16.383Z,78152.13
2018-10-11T05:48:44.789Z,78118.09
2018-10-11T05:51:13.174Z,78123.09
2018-10-11T05:53:42.989Z,78106.08
2018-10-11T05:56:13.345Z,78105.08
2018-10-11T05:58:43.302Z,78094.06
2018-10-11T06:01:13.447Z,78072.03
2018-10-11T06:03:44.565Z,78063.02
2018-10-11T06:06:13.562Z,78049.01
2018-10-11T06:08:44.094Z,78058.02
2018-10-11T06:11:13.837Z,78055.02
2018-10-11T06:13:43.462Z,78048.00
2018-10-11T06:16:14.309Z,78053.02
2018-10-11T06:18:44.344Z,78030.98
2018-10-11T06:21:16.879Z,78029.98
2018-10-11T06:23:46.461Z,78029.98
2018-10-11T06:26:15.115Z,78028.98
2018-10-11T06:28:44.641Z,78024.98
2018-10-11T06:31:13.002Z,78031.98
2018-10-11T06:33:43.343Z,78025.98
2018-10-11T06:36:12.864Z,78015.97
2018-10-11T06:38:42.485Z,78016.97
2018-10-11T06:41:11.881Z,78009.97
2018-10-11T06:43:43.093Z,78007.96
2018-10-11T06:46:12.992Z,78005.95
2018-10-11T06:48:42.274Z,77975.92
2018-10-11T06:51:12.665Z,77976.92
2018-10-11T06:53:43.404Z,77963.91
2018-10-11T06:56:12.853Z,77959.91
2018-10-11T06:58:42.146Z,77930.88
2018-10-11T07:01:12.413Z,77933.88
2018-10-11T07:03:43.152Z,77896.84
2018-10-11T07:06:12.591Z,77883.83
2018-10-11T07:08:43.265Z,77894.84
2018-10-11T07:11:12.436Z,77883.83
2018-10-11T07:13:43.334Z,77890.83
2018-10-11T07:16:13.949Z,77883.83
2018-10-11T07:18:43.201Z,77883.83
2018-10-11T07:21:12.668Z,77855.79
2018-10-11T07:23:43.384Z,77834.77
2018-10-11T07:26:12.322Z,77814.75
2018-10-11T07:28:42.069Z,77819.75
2018-10-11T07:31:12.798Z,77797.73
2018-10-11T07:33:42.188Z,77781.71
2018-10-11T07:36:12.378Z,77764.69
2018-10-11T07:38:43.179Z,77749.67
2018-10-11T07:41:12.459Z,77727.66
2018-10-11T07:43:43.141Z,77707.63
2018-10-11T07:46:12.490Z,77697.63
2018-10-11T07:48:42.882Z,77682.61
2018-10-11T07:51:12.029Z,77652.58
2018-10-11T07:53:41.476Z,77643.56
2018-10-11T07:56:10.665Z,77622.55
2018-10-11T07:58:40.061Z,77597.52
2018-10-11T08:01:08.777Z,77584.50
2018-10-11T08:03:37.250Z,77569.48
2018-10-11T08:06:05.604Z,77551.47
2018-10-11T08:08:33.997Z,77522.44
2018-10-11T08:11:02.469Z,77518.44
2018-10-11T08:13:30.747Z,77520.44
2018-10-11T08:15:59.155Z,77507.42
2018-10-11T08:18:27.525Z,77488.41
2018-10-11T08:20:55.877Z,77478.40
2018-10-11T08:23:24.252Z,77475.39
2018-10-11T08:25:52.877Z,77449.37
2018-10-11T08:28:21.006Z,77435.36
2018-10-11T08:30:50.180Z,77401.33
2018-10-11T08:33:19.510Z,77397.32
2018-10-11T08:35:47.867Z,77373.30
2018-10-11T08:38:16.376Z,77352.28
2018-10-11T08:40:45.576Z,77328.25
2018-10-11T08:43:14.917Z,77306.23
2018-10-11T08:45:43.341Z,77281.20
2018-10-11T08:48:12.418Z,77260.19
2018-10-11T08:50:41.863Z,77236.17
2018-10-11T08:53:11.367Z,77226.16
2018-10-11T08:55:40.813Z,77207.14
2018-10-11T08:58:09.960Z,77193.13
2018-10-11T09:00:40.757Z,77192.13
2018-10-11T09:03:10.018Z,77179.11
2018-10-11T09:05:40.254Z,77179.11
2018-10-11T09:08:08.817Z,77160.09
2018-10-11T09:10:38.551Z,77148.09
2018-10-11T09:13:07.483Z,77135.08
2018-10-11T09:15:36.767Z,77135.08
2018-10-11T09:18:06.057Z,77115.06
2018-10-11T09:20:35.277Z,77108.05
2018-10-11T09:23:04.683Z,77103.05
2018-10-11T09:25:33.873Z,77087.03
2018-10-11T09:28:03.142Z,77067.02
2018-10-11T09:30:32.216Z,77057.01
2018-10-11T09:33:01.515Z,77045.00
2018-10-11T09:35:30.790Z,77041.00
2018-10-11T09:37:59.163Z,77044.00
2018-10-11T09:40:28.441Z,77022.98
2018-10-11T09:42:57.773Z,77018.98
2018-10-11T09:45:26.963Z,77009.97
2018-10-11T09:47:56.216Z,76994.95
2018-10-11T09:50:25.515Z,76992.95
2018-10-11T09:52:54.751Z,76994.95
2018-10-11T09:55:24.108Z,76992.95
2018-10-11T09:57:53.329Z,76994.95
2018-10-11T10:00:27.909Z,76982.95
2018-10-11T10:02:57.269Z,76974.94
2018-10-11T10:05:26.508Z,76961.92
2018-10-11T10:07:55.897Z,76960.92
2018-10-11T10:10:25.305Z,76946.91
2018-10-11T10:12:54.586Z,76954.92
2018-10-11T10:15:23.647Z,76917.89
2018-10-11T10:17:53.053Z,76909.89
2018-10-11T10:20:22.292Z,76918.89
2018-10-11T10:22:51.577Z,76891.87
2018-10-11T10:25:19.958Z,76888.87
2018-10-11T10:27:48.285Z,76876.86
2018-10-11T10:30:22.918Z,76878.86
2018-10-11T10:32:52.262Z,76872.86
2018-10-11T10:35:21.550Z,76869.85
2018-10-11T10:37:50.825Z,76859.84
2018-10-11T10:40:20.109Z,76835.83
2018-10-11T10:42:48.461Z,76826.81
2018-10-11T10:45:17.779Z,76817.81
2018-10-11T10:47:46.113Z,76808.80
2018-10-11T10:50:15.518Z,76796.80
2018-10-11T10:52:43.848Z,76775.78
2018-10-11T10:55:13.133Z,76761.77
2018-10-11T10:57:42.113Z,76752.76
2018-10-11T11:00:12.089Z,76759.77
2018-10-11T11:02:41.966Z,76753.77
2018-10-11T11:05:12.685Z,76728.74
2018-10-11T11:07:42.116Z,76717.73
2018-10-11T11:10:11.912Z,76729.74
2018-10-11T11:12:40.993Z,76705.72
2018-10-11T11:15:10.765Z,76699.72
2018-10-11T11:17:40.322Z,76684.70
2018-10-11T11:20:09.346Z,76681.70
2018-10-11T11:22:37.885Z,76658.69
2018-10-11T11:25:06.558Z,76657.69
2018-10-11T11:27:34.941Z,76653.69
2018-10-11T11:30:03.318Z,76664.69
2018-10-11T11:32:31.673Z,76658.69
2018-10-11T11:35:00.014Z,76654.69
2018-10-11T11:37:28.354Z,76650.69
2018-10-11T11:39:56.696Z,76630.67
2018-10-11T11:42:25.061Z,76616.66
2018-10-11T11:44:53.465Z,76614.66
2018-10-11T11:47:21.826Z,76609.66
2018-10-11T11:49:50.186Z,76608.66
2018-10-11T11:52:18.520Z,76592.64
2018-10-11T11:54:46.866Z,76591.64
2018-10-11T11:57:16.217Z,76579.63
2018-10-11T11:59:45.453Z,76568.63
2018-10-11T12:02:14.725Z,76571.63
2018-10-11T12:04:43.898Z,76571.63
2018-10-11T12:07:12.305Z,76545.61
2018-10-11T12:09:41.870Z,76557.61
2018-10-11T12:12:15.461Z,76554.61
2018-10-11T12:14:44.114Z,76539.60
2018-10-11T12:17:12.461Z,76550.61
2018-10-11T12:19:41.390Z,76551.61
2018-10-11T12:22:12.148Z,76550.61
2018-10-11T12:24:42.972Z,76549.61
2018-10-11T12:27:12.270Z,76548.61
2018-10-11T12:29:42.909Z,76535.59
2018-10-11T12:32:13.617Z,76543.61
2018-10-11T12:34:42.858Z,76536.59
2018-10-11T12:37:13.526Z,76530.59
2018-10-11T12:39:43.249Z,76534.59
2018-10-11T12:42:13.272Z,76528.59
2018-10-11T12:44:43.694Z,76512.58
2018-10-11T12:47:14.300Z,76535.59
2018-10-11T12:49:47.449Z,76540.60
2018-10-11T12:52:13.471Z,76538.60
2018-10-11T12:54:42.815Z,76527.59
2018-10-11T12:57:16.184Z,76533.59
2018-10-11T12:59:41.925Z,76542.60
2018-10-11T13:02:12.266Z,76530.59
2018-10-11T13:04:43.000Z,76523.59
2018-10-11T13:07:12.289Z,76519.59
2018-10-11T13:09:42.105Z,76530.59
2018-10-11T13:12:12.393Z,76540.60
2018-10-11T13:14:43.069Z,76530.59
2018-10-11T13:17:12.453Z,76511.58
2018-10-11T13:19:43.462Z,76529.59
2018-10-11T13:22:12.858Z,76526.59
2018-10-11T13:24:46.836Z,76530.59
2018-10-11T13:27:12.986Z,76523.59
2018-10-11T13:29:42.493Z,76515.59
2018-10-11T13:32:13.461Z,76520.59
2018-10-11T13:34:42.378Z,76517.59
2018-10-11T13:37:12.802Z,76514.59
2018-10-11T13:39:50.532Z,76513.58
2018-10-11T13:42:12.936Z,76504.58
2018-10-11T13:44:42.598Z,76510.58
2018-10-11T13:47:12.889Z,76507.58
2018-10-11T13:49:42.637Z,76497.57
2018-10-11T13:52:15.492Z,76510.58
2018-10-11T13:54:42.345Z,76518.59
2018-10-11T13:57:12.396Z,76528.59
2018-10-11T13:59:41.406Z,76508.58
2018-10-11T14:02:10.111Z,76507.58
2018-10-11T14:04:39.977Z,76504.58
2018-10-11T14:07:09.826Z,76502.58
2018-10-11T14:09:40.059Z,76496.57
2018-10-11T14:12:10.018Z,76506.58
2018-10-11T14:14:39.966Z,76516.59
2018-10-11T14:17:08.337Z,76521.59
2018-10-11T14:19:36.693Z,76527.59
2018-10-11T14:22:05.034Z,76518.59
2018-10-11T14:24:33.392Z,76527.59
2018-10-11T14:27:01.738Z,76530.59
2018-10-11T14:29:30.126Z,76544.61
2018-10-11T14:31:58.461Z,76546.61
2018-10-11T14:34:26.793Z,76551.61
2018-10-11T14:36:56.265Z,76538.60
2018-10-11T14:39:24.534Z,76550.61
2018-10-11T14:41:52.924Z,76553.61
2018-10-11T14:44:21.254Z,76544.61
2018-10-11T14:46:49.585Z,76539.60
2018-10-11T14:49:17.953Z,76549.61
2018-10-11T14:51:48.374Z,76561.62
2018-10-11T14:54:14.998Z,76559.61
2018-10-11T14:56:43.993Z,76558.61
2018-10-11T14:59:12.574Z,76555.61
2018-10-11T15:01:42.049Z,76555.61
2018-10-11T15:04:11.706Z,76559.61
2018-10-11T15:06:41.276Z,76580.63
2018-10-11T15:09:11.352Z,76596.64
2018-10-11T15:11:41.615Z,76600.64
2018-10-11T15:14:12.407Z,76624.66
2018-10-11T15:16:41.955Z,76636.67
2018-10-11T15:19:10.768Z,76639.67
2018-10-11T15:21:41.081Z,76659.69
2018-10-11T15:24:11.055Z,76677.70
2018-10-11T15:26:41.333Z,76692.71
2018-10-11T15:29:12.160Z,76711.73
2018-10-11T15:31:42.473Z,76733.75
2018-10-11T15:34:13.124Z,76750.76
2018-10-11T15:36:42.508Z,76765.77
2018-10-11T15:39:13.873Z,76791.79
2018-10-11T15:41:44.712Z,76799.80
2018-10-11T15:44:13.255Z,76814.81
2018-10-11T15:46:43.488Z,76841.83
2018-10-11T15:49:12.620Z,76858.84
2018-10-11T15:51:42.801Z,76879.86
2018-10-11T15:54:13.620Z,76893.88
2018-10-11T15:56:42.753Z,76918.89
2018-10-11T15:59:13.528Z,76936.91
2018-10-11T16:01:42.937Z,76951.92
2018-10-11T16:04:12.365Z,76962.93
2018-10-11T16:06:41.705Z,76981.95
2018-10-11T16:09:11.887Z,76994.95
2018-10-11T16:11:41.954Z,77010.97
2018-10-11T16:14:12.155Z,77022.98
2018-10-11T16:16:41.865Z,77032.98
2018-10-11T16:19:10.813Z,77034.98
2018-10-11T16:21:39.850Z,77047.00
2018-10-11T16:24:08.176Z,77054.00
2018-10-11T16:26:36.514Z,77071.02
2018-10-11T16:29:04.879Z,77075.02
2018-10-11T16:31:33.214Z,77073.02
2018-10-11T16:34:01.643Z,77086.03
2018-10-11T16:36:30.126Z,77092.04
2018-10-11T16:38:58.459Z,77110.05
2018-10-11T16:41:27.568Z,77134.08
2018-10-11T16:43:55.923Z,77160.09
2018-10-11T16:46:24.281Z,77173.11
2018-10-11T16:48:52.694Z,77188.13
2018-10-11T16:51:21.084Z,77203.14
2018-10-11T16:53:49.487Z,77216.15
2018-10-11T16:56:17.845Z,77225.16
2018-10-11T16:58:52.859Z,77230.16
2018-10-11T17:01:21.200Z,77248.18
2018-10-11T17:03:50.485Z,77258.19
2018-10-11T17:06:19.841Z,77261.19
2018-10-11T17:08:49.041Z,77265.20
2018-10-11T17:11:17.538Z,77269.20
2018-10-11T17:13:46.781Z,77274.20
2018-10-11T17:16:15.900Z,77284.21
2018-10-11T17:18:44.317Z,77293.22
2018-10-11T17:21:13.671Z,77308.23
2018-10-11T17:23:42.528Z,77310.23
2018-10-11T17:26:11.595Z,77318.25
2018-10-11T17:28:41.124Z,77319.25
2018-10-11T17:31:11.824Z,77320.25
2018-10-11T17:33:41.378Z,77335.27
2018-10-11T17:36:10.489Z,77333.26
2018-10-11T17:38:38.893Z,77357.28
2018-10-11T17:41:07.317Z,77366.29
2018-10-11T17:43:35.678Z,77380.30
2018-10-11T17:46:04.442Z,77383.30
2018-10-11T17:48:32.790Z,77385.31
2018-10-11T17:51:02.146Z,77395.31
2018-10-11T17:53:31.380Z,77400.33
2018-10-11T17:55:59.729Z,77404.33
2018-10-11T17:58:29.302Z,77404.33
2018-10-11T18:00:57.973Z,77423.34
2018-10-11T18:03:26.353Z,77423.34
2018-10-11T18:05:54.962Z,77431.35
2018-10-11T18:08:23.318Z,77425.34
2018-10-11T18:10:52.006Z,77416.34
2018-10-11T18:13:21.401Z,77405.33
2018-10-11T18:15:50.649Z,77403.33
2018-10-11T18:18:18.995Z,77399.32
2018-10-11T18:20:47.342Z,77387.31
2018-10-11T18:23:16.653Z,77419.34
2018-10-11T18:25:45.002Z,77437.36
2018-10-11T18:28:14.354Z,77443.36
2018-10-11T18:30:43.593Z,77432.35
2018-10-11T18:33:12.898Z,77451.38
2018-10-11T18:35:42.468Z,77458.38
2018-10-11T18:38:11.818Z,77465.38
2018-10-11T18:40:41.417Z,77478.40
2018-10-11T18:43:11.546Z,77492.41
2018-10-11T18:45:40.224Z,77491.41
2018-10-11T18:48:09.209Z,77483.41
2018-10-11T18:50:40.145Z,77475.39
2018-10-11T18:53:10.475Z,77491.41
2018-10-11T18:55:39.908Z,77495.41
2018-10-11T18:58:09.982Z,77509.43
2018-10-11T19:00:40.481Z,77526.45
2018-10-11T19:03:09.963Z,77537.45
2018-10-11T19:05:40.371Z,77546.47
2018-10-11T19:08:08.832Z,77547.47
2018-10-11T19:10:37.182Z,77554.47
2018-10-11T19:13:05.789Z,77562.48
2018-10-11T19:15:35.127Z,77568.48
2018-10-11T19:18:03.868Z,77579.50
2018-10-11T19:20:33.252Z,77598.52
2018-10-11T19:23:01.603Z,77599.52
2018-10-11T19:25:30.953Z,77578.50
2018-10-11T19:28:00.160Z,77581.50
2018-10-11T19:30:29.391Z,77587.51
2018-10-11T19:32:57.740Z,77573.49
2018-10-11T19:35:27.022Z,77570.48
2018-10-11T19:37:56.361Z,77575.49
2018-10-11T19:40:25.656Z,77574.49
2018-10-11T19:42:54.905Z,77570.48
2018-10-11T19:45:24.598Z,77577.50
2018-10-11T19:47:52.926Z,77573.49
2018-10-11T19:50:24.101Z,77582.50
2018-10-11T19:52:52.533Z,77578.50
2018-10-11T19:55:21.730Z,77564.48
2018-10-11T19:57:51.041Z,77575.49
2018-10-11T20:00:20.268Z,77589.52
2018-10-11T20:02:49.521Z,77583.50
2018-10-11T20:05:18.889Z,77602.52
2018-10-11T20:07:48.245Z,77609.53
2018-10-11T20:10:16.672Z,77623.55
2018-10-11T20:12:45.433Z,77630.55
2018-10-11T20:15:14.682Z,77625.55
2018-10-11T20:17:43.440Z,77625.55
2018-10-11T20:20:12.909Z,77643.56
2018-10-11T20:22:43.005Z,77651.58
2018-10-11T20:25:12.506Z,77653.58
2018-10-11T20:27:41.358Z,77650.57
2018-10-11T20:30:11.742Z,77635.55
2018-10-11T20:32:40.640Z,77645.56
2018-10-11T20:35:10.049Z,77657.58
2018-10-11T20:37:40.673Z,77646.56
2018-10-11T20:40:10.177Z,77635.55
2018-10-11T20:42:40.781Z,77649.57
2018-10-11T20:45:10.121Z,77649.57
2018-10-11T20:47:39.147Z,77652.58
2018-10-11T20:50:10.425Z,77649.57
2018-10-11T20:52:38.763Z,77650.57
2018-10-11T20:55:07.117Z,77634.55
2018-10-11T20:57:35.497Z,77635.55
2018-10-11T21:00:03.879Z,77637.56
2018-10-11T21:02:33.133Z,77630.55
2018-10-11T21:05:01.502Z,77649.57
2018-10-11T21:07:29.869Z,77660.58
2018-10-11T21:09:58.249Z,77671.59
2018-10-11T21:12:26.681Z,77667.59
2018-10-11T21:14:55.017Z,77675.59
2018-10-11T21:17:23.397Z,77679.60
2018-10-11T21:19:51.800Z,77683.61
2018-10-11T21:22:20.177Z,77698.63
2018-10-11T21:24:48.641Z,77703.63
2018-10-11T21:27:17.062Z,77713.64
2018-10-11T21:29:45.505Z,77707.63
2018-10-11T21:32:14.670Z,77710.64
2018-10-11T21:34:43.012Z,77737.66
2018-10-11T21:37:12.879Z,77705.63
2018-10-11T21:39:42.238Z,77714.64
2018-10-11T21:42:11.730Z,77713.64
2018-10-11T21:44:42.084Z,77726.66
2018-10-11T21:47:14.825Z,77749.67
2018-10-11T21:49:44.126Z,77759.69
2018-10-11T21:52:14.781Z,77762.69
2018-10-11T21:54:44.033Z,77772.70
2018-10-11T21:57:14.535Z,77779.71
2018-10-11T21:59:43.919Z,77770.70
2018-10-11T22:02:13.221Z,77781.71
2018-10-11T22:04:43.465Z,77786.72
2018-10-11T22:07:12.957Z,77785.72
2018-10-11T22:09:43.409Z,77789.72
2018-10-11T22:12:14.016Z,77800.73
2018-10-11T22:14:43.395Z,77791.72
2018-10-11T22:17:12.965Z,77796.73
2018-10-11T22:19:43.178Z,77791.72
2018-10-11T22:22:12.065Z,77792.72
2018-10-11T22:24:41.743Z,77788.72
2018-10-11T22:27:11.190Z,77797.73
2018-10-11T22:29:41.829Z,77803.73
2018-10-11T22:32:11.305Z,77812.74
2018-10-11T22:34:41.959Z,77825.76
2018-10-11T22:37:13.109Z,77829.77
2018-10-11T22:39:42.164Z,77839.77
2018-10-11T22:42:12.993Z,77839.77
2018-10-11T22:44:42.669Z,77850.78
2018-10-11T22:47:12.045Z,77849.78
2018-10-11T22:49:41.709Z,77852.78
2018-10-11T22:52:11.314Z,77849.78
2018-10-11T22:54:41.540Z,77839.77
2018-10-11T22:57:11.568Z,77842.78
2018-10-11T22:59:40.397Z,77839.77
2018-10-11T23:02:08.757Z,77840.77
2018-10-11T23:04:37.090Z,77832.77
2018-10-11T23:07:05.486Z,77828.77
2018-10-11T23:09:33.828Z,77833.77
2018-10-11T23:12:02.215Z,77835.77
2018-10-11T23:14:30.550Z,77822.75
2018-10-11T23:16:58.952Z,77824.76
2018-10-11T23:19:27.554Z,77823.75
2018-10-11T23:21:56.034Z,77817.75
2018-10-11T23:24:25.718Z,77839.77
2018-10-11T23:26:54.076Z,77835.77
2018-10-11T23:29:22.413Z,77854.79
2018-10-11T23:31:50.871Z,77848.78
2018-10-11T23:34:20.217Z,77852.78
2018-10-11T23:36:48.549Z,77859.80
2018-10-11T23:39:16.885Z,77852.78
2018-10-11T23:41:45.217Z,77868.80
2018-10-11T23:44:13.569Z,77871.81
2018-10-11T23:46:42.656Z,77887.83
2018-10-11T23:49:12.901Z,77873.81
2018-10-11T23:51:42.664Z,77878.81
2018-10-11T23:54:11.976Z,77901.84
2018-10-11T23:56:41.841Z,77897.84
2018-10-11T23:59:12.490Z,77894.84
